Time;durP1;ratioP1;P1;durP2;ratioP2;P2;SDS_P1;SDS_P2;PMS_P1;PMS_P2;Temp;Humidity;BMP_temperature;BMP_pressure;BME280_temperature;BME280_humidity;BME280_pressure;Samples;Min_cycle;Max_cycle;Signal;HPM_P1;HPM_P2
2022/01/18 00:00:18;;;;;;;4.78;2.40;;;;;;;2.68;72.25;95360.38;4988125;28;20035;-70
2022/01/18 00:02:43;;;;;;;4.68;2.92;;;;;;;2.93;72.40;95402.09;4991717;28;20044;-69
2022/01/18 00:05:13;;;;;;;4.75;2.35;;;;;;;2.65;71.96;95351.09;4991744;28;20117;-68
2022/01/18 00:07:43;;;;;;;3.72;2.28;;;;;;;2.73;72.92;95401.81;4991705;28;20714;-71
2022/01/18 00:10:10;;;;;;;3.80;2.47;;;;;;;2.59;73.12;95399.63;4990970;28;20034;-70
2022/01/18 00:18:06;;;;;;;4.47;2.70;;;;;;;2.72;71.89;95401.00;4991809;28;20035;-69
2022/01/18 00:21:18;;;;;;;4.22;2.38;;;;;;;2.66;71.08;95403.69;4991768;28;20385;-69
2022/01/18 00:23:45;;;;;;;3.88;2.75;;;;;;;2.76;70.84;95407.66;4990683;28;20030;-68
2022/01/18 00:26:11;;;;;;;5.65;2.90;;;;;;;2.88;70.44;95418.41;4991357;28;20022;-69
2022/01/18 00:28:37;;;;;;;3.70;2.83;;;;;;;2.87;70.30;95420.13;4991330;28;20109;-69
2022/01/18 00:38:51;;;;;;;5.38;3.20;;;;;;;2.93;68.76;95417.41;4991029;28;20049;-68
2022/01/18 00:41:18;;;;;;;3.92;2.65;;;;;;;2.71;68.58;95366.22;4990924;28;20031;-69
2022/01/18 00:43:45;;;;;;;4.25;2.92;;;;;;;2.52;68.97;95370.09;4990778;28;20425;-68
2022/01/18 00:46:14;;;;;;;3.97;3.03;;;;;;;2.63;68.42;95408.03;4990427;28;20470;-69
2022/01/18 00:48:41;;;;;;;5.15;3.10;;;;;;;2.55;68.34;95420.94;4991067;28;20019;-68
2022/01/18 00:51:10;;;;;;;5.53;3.90;;;;;;;2.50;68.57;95432.97;4990585;28;20185;-68
2022/01/18 00:53:38;;;;;;;6.18;3.95;;;;;;;2.49;68.03;95426.19;4990630;28;20364;-68
2022/01/18 00:58:33;;;;;;;5.88;3.63;;;;;;;2.67;67.00;95424.88;4989954;28;20065;-69
2022/01/18 01:00:58;;;;;;;5.70;4.05;;;;;;;2.90;66.24;95452.31;4990786;28;20034;-69
2022/01/18 01:03:24;;;;;;;5.95;3.83;;;;;;;3.04;66.62;95464.72;4990583;28;20517;-69
2022/01/18 01:05:49;;;;;;;4.95;3.42;;;;;;;3.12;66.73;95468.72;4990568;28;20077;-71
2022/01/18 01:08:15;;;;;;;8.45;4.35;;;;;;;3.07;68.10;95487.56;4990012;28;20413;-69
2022/01/18 01:10:41;;;;;;;6.93;3.80;;;;;;;2.93;69.71;95491.28;4989995;28;20026;-70
2022/01/18 01:13:07;;;;;;;7.10;4.60;;;;;;;2.88;71.18;95505.84;4989965;28;20041;-69
2022/01/18 01:15:41;;;;;;;6.47;4.43;;;;;;;2.89;72.16;95511.78;4990665;28;20060;-69
2022/01/18 01:41:46;;;;;;;4.68;3.20;;;;;;;1.84;78.35;95547.25;4948319;29;20043;-69
2022/01/18 01:45:24;;;;;;;3.92;2.90;;;;;;;1.36;81.19;95565.09;4948159;28;20039;-69
2022/01/18 01:47:52;;;;;;;5.07;3.25;;;;;;;1.25;82.02;95562.78;4948046;28;20050;-69
2022/01/18 01:50:20;;;;;;;5.25;3.60;;;;;;;1.16;83.02;95562.91;4948273;29;20043;-69
2022/01/18 01:52:47;;;;;;;6.65;3.65;;;;;;;1.02;82.87;95538.59;4948340;29;20045;-69
2022/01/18 01:55:13;;;;;;;6.03;4.22;;;;;;;0.79;83.29;95517.81;4948475;28;20047;-69
2022/01/18 01:57:39;;;;;;;5.32;3.25;;;;;;;0.88;81.97;95545.59;4947688;28;20134;-70
2022/01/18 02:00:08;;;;;;;6.05;3.58;;;;;;;0.96;81.22;95558.19;4947843;29;20122;-71
2022/01/18 02:02:33;;;;;;;4.70;3.45;;;;;;;0.86;79.06;95550.72;4947986;29;20035;-70
2022/01/18 02:04:59;;;;;;;5.03;3.03;;;;;;;1.10;76.94;95585.03;4947903;28;20043;-69
2022/01/18 02:07:25;;;;;;;4.70;3.50;;;;;;;1.18;75.32;95589.13;4947644;28;20054;-70
2022/01/18 02:09:50;;;;;;;4.95;2.83;;;;;;;1.04;71.17;95562.25;4947432;29;20050;-69
2022/01/18 02:12:17;;;;;;;4.22;2.67;;;;;;;1.24;68.15;95592.41;4947923;29;20069;-69
2022/01/18 02:14:47;;;;;;;3.30;1.90;;;;;;;0.67;66.00;95501.97;4986757;28;20074;-66
2022/01/18 02:22:40;;;;;;;1.60;1.40;;;;;;;0.70;60.68;95579.75;4989230;28;20088;-68
2022/01/18 02:25:06;;;;;;;2.50;2.30;;;;;;;0.69;59.26;95617.00;4988241;28;20105;-68
2022/01/18 02:27:31;;;;;;;2.35;1.70;;;;;;;0.71;58.48;95625.41;4989159;28;20465;-68
2022/01/18 02:29:57;;;;;;;1.85;1.35;;;;;;;0.39;58.37;95575.13;4988792;28;20109;-69
2022/01/18 02:32:22;;;;;;;2.92;2.10;;;;;;;-0.13;58.21;95487.09;4987688;28;20038;-66
2022/01/18 02:34:47;;;;;;;2.80;1.67;;;;;;;0.30;58.38;95583.72;4988316;28;20022;-68
2022/01/18 02:37:14;;;;;;;2.17;1.27;;;;;;;0.34;59.09;95599.72;4988563;28;20414;-69
2022/01/18 02:39:40;;;;;;;2.03;1.45;;;;;;;0.41;57.93;95653.75;4988562;28;20038;-67
2022/01/18 02:42:07;;;;;;;2.88;1.70;;;;;;;0.32;57.95;95653.03;4988841;28;20034;-69
2022/01/18 02:44:35;;;;;;;2.30;1.75;;;;;;;0.34;56.99;95650.47;5003682;28;20034;-67
2022/01/18 02:47:02;;;;;;;3.33;1.40;;;;;;;0.23;56.86;95662.44;4988103;28;20030;-70
2022/01/18 02:49:28;;;;;;;2.75;1.65;;;;;;;-0.10;56.45;95641.69;4988448;28;20824;-66
2022/01/18 02:51:55;;;;;;;2.20;1.30;;;;;;;-0.02;55.12;95630.63;4989261;28;20477;-67
2022/01/18 02:54:21;;;;;;;2.55;1.70;;;;;;;0.06;55.96;95668.56;4989339;28;20106;-68
2022/01/18 02:56:52;;;;;;;2.67;2.03;;;;;;;0.04;54.93;95677.06;4988616;28;20505;-66
2022/01/18 02:59:31;;;;;;;2.60;1.50;;;;;;;0.01;54.54;95693.13;4987908;28;20022;-69
2022/01/18 03:04:45;;;;;;;2.83;1.80;;;;;;;-0.21;54.30;95683.22;4988655;28;20065;-69
2022/01/18 03:07:11;;;;;;;3.17;1.98;;;;;;;-0.31;54.46;95686.72;4988397;28;20360;-69
2022/01/18 03:09:37;;;;;;;3.85;2.42;;;;;;;-0.21;54.67;95710.28;4988236;28;20022;-68
2022/01/18 03:12:03;;;;;;;4.10;2.03;;;;;;;-0.36;54.26;95701.13;4988507;28;20041;-68
2022/01/18 03:14:29;;;;;;;2.22;1.60;;;;;;;-0.30;53.90;95723.84;4988265;28;20035;-68
2022/01/18 03:16:54;;;;;;;2.58;1.85;;;;;;;-0.34;54.41;95721.34;4988524;28;20121;-68
2022/01/18 03:19:20;;;;;;;4.68;1.80;;;;;;;-0.37;54.42;95737.44;4988259;28;20031;-68
2022/01/18 03:21:45;;;;;;;2.83;1.73;;;;;;;-0.58;53.88;95697.94;4988772;28;20041;-69
2022/01/18 03:24:42;;;;;;;2.80;1.60;;;;;;;-0.42;54.58;95724.81;4988015;28;20038;-69
2022/01/18 03:29:49;;;;;;;2.40;1.63;;;;;;;-0.67;54.49;95729.25;4988551;28;20034;-69
2022/01/18 03:32:14;;;;;;;3.22;2.05;;;;;;;-0.53;53.98;95735.91;4988240;28;20026;-68
2022/01/18 03:34:40;;;;;;;3.25;1.63;;;;;;;-0.58;54.23;95741.81;4987678;28;20413;-68
2022/01/18 03:37:05;;;;;;;5.28;2.10;;;;;;;-0.53;54.83;95746.84;4991036;28;20412;-69
2022/01/18 03:39:31;;;;;;;4.03;2.05;;;;;;;-0.83;55.41;95720.09;4991914;28;20037;-69
2022/01/18 03:42:14;;;;;;;4.88;2.13;;;;;;;-0.63;55.51;95766.34;4992060;28;20062;-69
2022/01/18 03:44:41;;;;;;;2.33;1.63;;;;;;;-0.68;55.61;95763.03;4992014;28;20022;-69
2022/01/18 03:47:06;;;;;;;4.05;1.80;;;;;;;-0.73;55.62;95764.75;4991546;28;20188;-70
2022/01/18 03:49:36;;;;;;;4.47;2.30;;;;;;;-0.82;55.44;95747.06;4992005;28;20211;-71
2022/01/18 03:52:01;;;;;;;2.28;1.83;;;;;;;-0.98;55.98;95723.56;4992037;28;20035;-69
2022/01/18 03:54:27;;;;;;;3.38;2.10;;;;;;;-0.75;55.45;95781.66;4991399;28;20503;-71
2022/01/18 03:56:52;;;;;;;2.90;1.55;;;;;;;-0.77;55.34;95789.25;4992098;28;20046;-68
2022/01/18 03:59:18;;;;;;;3.40;1.83;;;;;;;-1.07;55.23;95751.47;4991544;28;20500;-70
2022/01/18 04:01:43;;;;;;;4.93;2.35;;;;;;;-0.80;54.87;95811.25;4991421;28;20029;-70
2022/01/18 04:04:08;;;;;;;3.45;2.28;;;;;;;-1.06;55.51;95776.78;4991878;28;20038;-70
2022/01/18 04:06:34;;;;;;;5.03;2.58;;;;;;;-1.50;55.19;95722.16;4991711;28;20036;-69
2022/01/18 04:08:59;;;;;;;4.10;2.25;;;;;;;-1.07;55.32;95809.69;4991509;28;20027;-70
2022/01/18 04:11:25;;;;;;;3.92;1.83;;;;;;;-1.20;55.50;95797.06;4991294;28;20375;-69
2022/01/18 04:13:50;;;;;;;3.65;2.50;;;;;;;-1.05;55.94;95831.63;4991867;28;20100;-69
2022/01/18 04:16:17;;;;;;;3.47;1.95;;;;;;;-1.23;55.82;95798.78;4991586;28;20045;-69
2022/01/18 04:18:55;;;;;;;2.80;1.92;;;;;;;-1.00;56.01;95846.78;4991500;28;20028;-68
2022/01/18 04:26:57;;;;;;;3.45;2.30;;;;;;;-1.21;55.64;95852.78;4969261;28;20302;-69
2022/01/18 04:29:23;;;;;;;4.10;2.20;;;;;;;-1.04;56.29;95880.56;4969185;28;20129;-68
2022/01/18 04:31:49;;;;;;;3.42;2.17;;;;;;;-1.34;55.68;95836.81;4969032;28;20486;-70
2022/01/18 04:34:14;;;;;;;3.75;2.40;;;;;;;-1.04;55.51;95876.31;4968138;28;20081;-70
2022/01/18 04:36:40;;;;;;;3.83;2.50;;;;;;;-1.05;54.97;95878.88;4969175;28;20042;-68
2022/01/18 04:39:05;;;;;;;4.20;2.40;;;;;;;-1.07;56.03;95891.53;4968860;28;20127;-70
2022/01/18 04:41:32;;;;;;;4.03;2.20;;;;;;;-1.20;55.48;95872.16;4969010;28;20479;-69
2022/01/18 04:49:08;;;;;;;3.00;1.83;;;;;;;-1.14;56.66;95921.09;4968309;28;20238;-70
2022/01/18 04:51:34;;;;;;;4.28;2.60;;;;;;;-1.25;55.99;95911.84;4968306;28;20053;-69
2022/01/18 04:54:02;;;;;;;3.80;2.10;;;;;;;-1.01;55.18;95926.13;4968714;28;20463;-69
2022/01/18 04:59:06;;;;;;;3.30;2.30;;;;;;;-1.03;54.44;95927.78;4968166;28;20031;-70
2022/01/18 05:01:32;;;;;;;4.22;2.63;;;;;;;-1.27;55.33;95899.19;4988037;28;20394;-68
2022/01/18 05:03:58;;;;;;;3.97;2.55;;;;;;;-1.03;55.28;95932.84;5019908;28;20029;-67
2022/01/18 05:06:23;;;;;;;2.95;2.00;;;;;;;-1.26;55.02;95874.72;5022930;28;20088;-68
2022/01/18 05:08:50;;;;;;;3.38;2.28;;;;;;;-0.92;55.10;95936.19;5014383;28;20129;-68
2022/01/18 05:11:18;;;;;;;4.80;3.03;;;;;;;-0.86;55.40;95955.59;5025158;28;20029;-66
2022/01/18 05:19:14;;;;;;;3.92;2.42;;;;;;;-0.70;54.55;95956.41;4994533;28;20096;-68
2022/01/18 05:24:06;;;;;;;3.97;2.72;;;;;;;-0.75;54.36;95964.84;5010430;28;20449;-67
2022/01/18 05:26:32;;;;;;;3.03;2.17;;;;;;;-0.83;55.35;95968.25;5008161;28;20061;-67
2022/01/18 05:28:57;;;;;;;4.15;3.03;;;;;;;-0.96;54.84;95953.09;5010024;28;20030;-69
2022/01/18 05:31:26;;;;;;;3.90;2.60;;;;;;;-0.84;54.98;95979.22;5009658;28;20109;-69
2022/01/18 05:33:51;;;;;;;4.78;2.85;;;;;;;-0.73;54.66;95982.56;4991996;28;20473;-69
2022/01/18 05:36:17;;;;;;;5.20;2.50;;;;;;;-0.72;54.23;95983.41;5010004;28;20056;-66
2022/01/18 05:38:42;;;;;;;5.68;3.25;;;;;;;-0.75;55.13;95995.25;5010100;28;20061;-69
2022/01/18 05:41:10;;;;;;;4.05;2.60;;;;;;;-0.73;54.90;95992.72;5009844;28;20099;-67
2022/01/18 05:43:35;;;;;;;4.38;2.78;;;;;;;-1.21;54.37;95901.72;5009391;28;20018;-68
2022/01/18 05:46:01;;;;;;;6.22;3.72;;;;;;;-0.89;54.64;95969.09;5009551;28;20440;-68
2022/01/18 05:48:27;;;;;;;3.65;2.72;;;;;;;-0.97;54.63;95955.63;5009588;28;20030;-69
2022/01/18 05:50:59;;;;;;;5.43;2.40;;;;;;;-1.46;54.64;95890.78;5009520;28;20087;-69
2022/01/18 05:53:27;;;;;;;4.53;3.10;;;;;;;-1.42;55.46;95904.28;5009435;28;20034;-68
2022/01/18 05:55:53;;;;;;;6.38;2.17;;;;;;;-1.14;55.01;95959.03;5009404;28;20037;-67
2022/01/18 05:58:19;;;;;;;5.25;2.97;;;;;;;-0.89;55.00;96002.03;5009109;28;20062;-69
2022/01/18 06:00:52;;;;;;;4.40;2.75;;;;;;;-0.78;54.92;96017.22;5009370;28;20052;-68
2022/01/18 06:03:26;;;;;;;6.93;3.65;;;;;;;-1.35;55.19;95942.22;5009561;28;20030;-68
2022/01/18 06:08:35;;;;;;;4.45;2.85;;;;;;;-0.79;55.77;96044.25;5009728;28;20072;-68
2022/01/18 06:11:01;;;;;;;5.63;3.22;;;;;;;-0.76;56.13;96043.38;5008975;28;20061;-68
2022/01/18 06:13:28;;;;;;;8.18;3.50;;;;;;;-0.85;56.24;96030.72;5009049;28;20022;-68
2022/01/18 06:15:54;;;;;;;8.57;3.70;;;;;;;-0.77;55.64;96056.88;5009311;28;20037;-66
2022/01/18 06:18:19;;;;;;;5.05;3.35;;;;;;;-0.64;55.16;96050.09;5009140;28;20022;-67
2022/01/18 06:20:45;;;;;;;7.03;4.00;;;;;;;-0.74;55.68;96051.78;5008809;28;20044;-64
2022/01/18 06:23:10;;;;;;;6.18;3.65;;;;;;;-0.65;55.15;96069.53;5008321;28;20042;-67
2022/01/18 06:25:36;;;;;;;6.40;3.88;;;;;;;-0.63;55.30;96084.72;5008636;28;20030;-67
2022/01/18 06:28:02;;;;;;;7.50;3.45;;;;;;;-0.98;55.37;96005.44;5009282;28;20018;-67
2022/01/18 06:30:27;;;;;;;5.05;3.35;;;;;;;-0.86;54.57;96016.38;5009019;28;20501;-69
2022/01/18 06:32:53;;;;;;;4.78;3.03;;;;;;;-0.65;55.35;96056.84;5009023;28;20026;-68
2022/01/18 06:35:18;;;;;;;6.07;3.15;;;;;;;-0.51;55.04;96083.84;5008444;28;20022;-65
2022/01/18 06:37:44;;;;;;;6.40;3.72;;;;;;;-0.64;54.81;96043.34;5008727;28;20029;-65
2022/01/18 06:40:11;;;;;;;5.28;3.30;;;;;;;-0.46;55.58;96072.00;5006145;28;20334;-64
2022/01/18 06:42:37;;;;;;;5.40;3.55;;;;;;;-0.75;54.98;96024.81;5014120;28;20065;-66
2022/01/18 06:45:04;;;;;;;6.93;3.70;;;;;;;-0.48;54.95;96073.69;5018992;28;20036;-66
2022/01/18 06:47:29;;;;;;;5.53;4.07;;;;;;;-0.46;54.81;96072.88;5012465;28;20063;-65
2022/01/18 06:49:55;;;;;;;7.53;3.92;;;;;;;-0.59;55.28;96049.25;5020451;28;20041;-65
2022/01/18 06:52:20;;;;;;;4.60;3.05;;;;;;;-0.27;59.33;96067.72;5011708;28;20044;-64
2022/01/18 06:54:46;;;;;;;8.13;3.42;;;;;;;0.12;54.02;96081.91;5020250;28;20038;-65
2022/01/18 06:57:12;;;;;;;4.55;2.78;;;;;;;-0.47;54.09;96015.41;5016046;28;20038;-65
2022/01/18 06:59:37;;;;;;;5.57;3.20;;;;;;;-0.30;54.32;96065.19;5016451;28;20054;-68
2022/01/18 07:02:03;;;;;;;4.82;2.92;;;;;;;-0.21;54.46;96095.59;5017421;28;20029;-64
2022/01/18 07:04:29;;;;;;;7.30;3.30;;;;;;;-0.53;54.22;96073.72;5009080;28;20033;-63
2022/01/18 07:06:55;;;;;;;6.63;3.97;;;;;;;-0.38;54.71;96105.75;5006754;28;20421;-64
2022/01/18 07:09:23;;;;;;;7.85;4.55;;;;;;;-0.60;55.43;96065.28;5009677;28;20034;-66
2022/01/18 07:11:54;;;;;;;6.60;3.72;;;;;;;-0.40;55.62;96103.22;5002532;28;20037;-67
2022/01/18 07:14:19;;;;;;;4.38;3.50;;;;;;;-0.19;54.48;96115.00;5005026;28;20026;-65
2022/01/18 07:16:45;;;;;;;9.60;3.83;;;;;;;-0.25;55.50;96116.72;5009928;28;20821;-65
2022/01/18 07:19:10;;;;;;;4.43;3.08;;;;;;;-0.23;55.11;96125.16;5006078;28;20032;-64
2022/01/18 07:21:36;;;;;;;4.60;3.03;;;;;;;-0.31;55.07;96107.44;5012154;28;20056;-66
2022/01/18 07:24:14;;;;;;;5.43;2.75;;;;;;;-0.44;54.80;96096.50;5015477;28;20048;-63
2022/01/18 07:26:39;;;;;;;5.68;2.90;;;;;;;-0.08;53.78;96150.47;5012121;28;20025;-69
2022/01/18 07:29:05;;;;;;;6.65;3.67;;;;;;;-0.12;54.38;96146.25;5017363;28;20033;-66
2022/01/18 07:31:30;;;;;;;4.70;3.50;;;;;;;-0.32;55.08;96107.44;5008516;28;20033;-65
2022/01/18 07:33:56;;;;;;;5.70;3.20;;;;;;;-0.14;55.12;96142.88;4990072;28;20038;-66
2022/01/18 07:36:21;;;;;;;4.15;3.20;;;;;;;-0.27;54.65;96121.78;5017636;28;20524;-65
2022/01/18 07:38:47;;;;;;;8.30;3.88;;;;;;;-0.11;55.88;96135.25;5015650;28;20509;-66
2022/01/18 07:41:12;;;;;;;6.10;3.28;;;;;;;-0.23;55.34;96110.81;5005004;28;20030;-67
2022/01/18 07:43:40;;;;;;;3.00;2.45;;;;;;;-0.28;54.53;96109.97;5014305;28;20030;-66
2022/01/18 07:46:05;;;;;;;3.70;3.17;;;;;;;-0.29;55.29;96112.53;5012671;28;20029;-66
2022/01/18 07:48:31;;;;;;;4.30;2.33;;;;;;;-0.11;54.86;96139.50;5021824;28;20481;-63
2022/01/18 07:50:58;;;;;;;4.40;2.92;;;;;;;-0.31;54.68;96130.25;5019116;28;20191;-66
2022/01/18 07:53:25;;;;;;;7.78;3.83;;;;;;;-0.31;55.27;96117.59;5024435;28;20504;-66
2022/01/18 07:55:50;;;;;;;7.57;4.07;;;;;;;0.00;55.67;96150.47;5007297;28;20029;-67
2022/01/18 07:58:17;;;;;;;5.30;3.25;;;;;;;0.05;54.03;96147.88;5021162;28;20107;-65
2022/01/18 08:00:43;;;;;;;6.40;3.45;;;;;;;-0.09;54.66;96132.72;5009674;28;20033;-66
2022/01/18 08:03:09;;;;;;;3.22;2.72;;;;;;;-0.02;54.43;96160.59;5022538;28;20029;-66
2022/01/18 08:05:35;;;;;;;6.65;2.90;;;;;;;-0.02;55.16;96159.75;5015453;28;20025;-68
2022/01/18 08:08:02;;;;;;;6.13;3.70;;;;;;;0.04;54.73;96147.03;5018685;28;20036;-68
2022/01/18 08:10:30;;;;;;;5.40;4.20;;;;;;;0.08;55.09;96151.28;5015427;28;20434;-67
2022/01/18 08:13:00;;;;;;;7.47;3.47;;;;;;;0.38;54.50;96177.34;5017197;28;20025;-66
2022/01/18 08:15:27;;;;;;;3.90;2.83;;;;;;;0.14;53.81;96146.16;5018085;28;20464;-66
2022/01/18 08:17:54;;;;;;;5.22;2.95;;;;;;;0.37;55.16;96168.03;5021394;28;20029;-68
2022/01/18 08:20:21;;;;;;;5.90;3.80;;;;;;;0.36;54.23;96159.59;5020846;28;20029;-73
2022/01/18 08:22:46;;;;;;;7.20;3.60;;;;;;;0.30;53.92;96141.84;5007364;28;20180;-66
2022/01/18 08:25:15;;;;;;;3.88;2.70;;;;;;;0.29;53.64;96146.94;5002088;28;20107;-68
2022/01/18 08:27:42;;;;;;;3.95;2.75;;;;;;;0.22;53.01;96140.22;4990839;28;20113;-67
2022/01/18 08:30:10;;;;;;;6.03;3.00;;;;;;;1.92;49.33;96162.63;4999425;28;20557;-68
2022/01/18 08:32:37;;;;;;;7.40;3.72;;;;;;;4.59;43.54;96172.88;4991421;28;20031;-69
2022/01/18 08:35:04;;;;;;;8.35;4.18;;;;;;;6.46;38.06;96159.78;5006777;28;20030;-69
2022/01/18 08:37:30;;;;;;;4.95;3.03;;;;;;;8.02;34.60;96145.50;5010303;28;20038;-69
2022/01/18 08:39:56;;;;;;;7.28;3.80;;;;;;;7.99;33.81;96163.56;5010274;28;20061;-69
2022/01/18 08:42:21;;;;;;;4.63;2.97;;;;;;;7.70;34.09;96096.06;5010604;28;20033;-66
2022/01/18 08:44:47;;;;;;;6.22;3.22;;;;;;;8.93;31.71;96170.50;5008483;28;20117;-69
2022/01/18 08:47:13;;;;;;;8.02;4.13;;;;;;;9.84;31.29;96159.16;4990867;28;20043;-67
2022/01/18 08:49:39;;;;;;;6.25;3.75;;;;;;;11.16;28.43;96163.63;4992610;28;20470;-66
2022/01/18 08:52:05;;;;;;;4.82;2.80;;;;;;;9.73;29.49;96157.03;5010247;28;20038;-66
2022/01/18 08:54:31;;;;;;;4.65;3.45;;;;;;;9.34;30.24;96199.75;5009881;28;20040;-68
2022/01/18 08:56:56;;;;;;;5.60;3.60;;;;;;;8.62;31.44;96175.06;5010128;28;20050;-67
2022/01/18 08:59:23;;;;;;;5.75;3.33;;;;;;;7.87;32.09;96167.38;4999924;28;20030;-66
2022/01/18 09:01:49;;;;;;;10.30;3.15;;;;;;;7.03;34.31;96194.84;4999941;28;20025;-67
2022/01/18 09:04:15;;;;;;;5.25;2.95;;;;;;;6.30;35.61;96206.34;5005940;28;20029;-67
2022/01/18 09:06:41;;;;;;;4.65;3.03;;;;;;;4.04;39.76;96222.47;4990808;28;20034;-68
2022/01/18 09:09:08;;;;;;;4.10;3.20;;;;;;;6.34;35.48;96166.09;4990593;28;20486;-68
2022/01/18 09:11:34;;;;;;;4.85;2.95;;;;;;;7.91;33.24;96189.50;4989954;28;20034;-67
2022/01/18 09:13:59;;;;;;;6.07;3.58;;;;;;;10.07;29.35;96194.28;4990388;28;20030;-67
2022/01/18 09:16:25;;;;;;;5.07;3.50;;;;;;;12.86;25.90;96174.13;4972830;28;20038;-70
2022/01/18 09:18:50;;;;;;;4.90;3.42;;;;;;;13.72;24.81;96171.16;4990729;28;20049;-66
2022/01/18 09:21:17;;;;;;;5.65;3.50;;;;;;;13.02;25.44;96152.59;4990447;28;20034;-69
2022/01/18 09:23:43;;;;;;;6.95;4.25;;;;;;;12.58;26.10;96159.25;4989997;28;20070;-71
2022/01/18 09:26:09;;;;;;;5.43;3.88;;;;;;;12.55;25.45;96195.63;4990313;28;20064;-65
2022/01/18 09:28:34;;;;;;;5.80;3.47;;;;;;;12.80;25.25;96186.56;4989930;28;20066;-67
2022/01/18 09:31:01;;;;;;;8.77;3.97;;;;;;;14.79;22.37;96125.97;4990377;28;20033;-66
2022/01/18 09:33:26;;;;;;;4.82;3.03;;;;;;;14.31;22.67;96171.22;4989689;28;20041;-66
2022/01/18 09:35:52;;;;;;;5.25;2.67;;;;;;;14.03;23.27;96165.97;4990064;28;20034;-67
2022/01/18 09:38:18;;;;;;;5.82;3.95;;;;;;;13.89;22.88;96152.06;5004097;28;20110;-66
2022/01/18 09:40:45;;;;;;;6.25;3.28;;;;;;;13.37;23.17;96161.03;5009577;28;20034;-69
2022/01/18 09:43:13;;;;;;;7.20;3.75;;;;;;;14.66;22.31;96118.94;5008887;28;20030;-67
2022/01/18 09:45:41;;;;;;;7.75;4.30;;;;;;;14.74;22.31;96134.06;4991676;28;20110;-69
2022/01/18 09:48:09;;;;;;;9.77;4.20;;;;;;;15.68;21.33;96125.50;4972574;28;20406;-67
2022/01/18 09:50:37;;;;;;;6.05;3.88;;;;;;;14.26;22.30;96118.72;4972476;28;20051;-69
2022/01/18 09:53:06;;;;;;;8.50;4.15;;;;;;;14.35;23.30;96135.53;4989772;28;20038;-67
2022/01/18 09:55:40;;;;;;;5.68;3.53;;;;;;;14.76;22.02;96101.03;4988718;28;20034;-66
2022/01/18 09:58:14;;;;;;;6.53;4.10;;;;;;;15.72;21.08;96105.31;4988269;28;20042;-68
2022/01/18 10:00:48;;;;;;;5.78;4.00;;;;;;;16.04;20.85;96133.59;5006072;28;20038;-67
2022/01/18 10:03:41;;;;;;;6.53;3.67;;;;;;;14.22;22.43;96114.66;5009606;28;20042;-66
2022/01/18 10:06:09;;;;;;;7.60;4.35;;;;;;;16.12;20.74;96115.69;5008211;28;20063;-68
2022/01/18 10:08:42;;;;;;;8.48;3.85;;;;;;;14.18;22.56;96120.94;5007553;28;20038;-69
2022/01/18 10:11:16;;;;;;;7.40;3.78;;;;;;;13.68;23.05;96128.19;5008789;28;20049;-69
2022/01/18 10:13:47;;;;;;;6.00;3.42;;;;;;;12.53;23.78;96179.34;5007205;28;20374;-68
2022/01/18 10:16:16;;;;;;;6.45;3.40;;;;;;;9.85;27.55;96171.13;4988343;28;20057;-67
2022/01/18 10:18:49;;;;;;;7.22;3.90;;;;;;;11.69;26.48;96153.38;4988799;28;20038;-68
2022/01/18 10:21:34;;;;;;;3.90;3.03;;;;;;;13.19;23.00;96105.88;4988844;28;20620;-69
2022/01/18 10:24:20;;;;;;;6.95;3.50;;;;;;;14.69;22.23;96142.13;4988565;28;20387;-68
2022/01/18 10:26:57;;;;;;;9.68;4.30;;;;;;;14.88;21.71;96136.63;4988344;28;20529;-66
2022/01/18 10:29:29;;;;;;;7.63;3.13;;;;;;;14.56;21.23;96136.00;4987033;28;20080;-66
2022/01/18 10:31:58;;;;;;;6.25;3.10;;;;;;;13.14;22.43;96138.97;4988506;28;20038;-67
2022/01/18 10:37:09;;;;;;;5.90;2.40;;;;;;;11.58;24.71;96146.19;4988881;28;20034;-67
2022/01/18 10:39:41;;;;;;;5.50;3.45;;;;;;;12.32;24.53;96108.88;4989087;28;20485;-68
2022/01/18 10:42:32;;;;;;;5.55;4.05;;;;;;;13.55;22.34;96135.00;5026744;28;20425;-69
2022/01/18 10:45:05;;;;;;;5.95;2.55;;;;;;;11.11;25.21;96162.19;5020025;28;20483;-65
2022/01/18 10:47:35;;;;;;;6.88;3.17;;;;;;;10.04;27.38;96153.19;5001189;28;20587;-68
2022/01/18 10:50:13;;;;;;;7.28;3.55;;;;;;;12.40;24.36;96103.31;5017050;28;20136;-68
2022/01/18 10:52:40;;;;;;;5.32;2.75;;;;;;;10.80;26.10;96137.81;5006772;28;20033;-67
2022/01/18 10:55:25;;;;;;;6.10;2.88;;;;;;;7.81;30.08;96181.28;5006570;28;20045;-67
2022/01/18 10:57:55;;;;;;;6.28;3.72;;;;;;;7.33;31.75;96180.25;5005418;28;20449;-68
2022/01/18 11:00:29;;;;;;;6.97;3.70;;;;;;;8.91;29.66;96170.56;4991480;28;20037;-67
2022/01/18 11:03:14;;;;;;;6.35;3.47;;;;;;;5.94;33.85;96182.53;4986721;28;20046;-66
2022/01/18 11:05:47;;;;;;;11.93;4.72;;;;;;;4.81;36.92;96192.84;4987776;28;20100;-69
2022/01/18 11:08:19;;;;;;;9.65;4.32;;;;;;;5.18;37.11;96186.91;4989087;28;20106;-69
2022/01/18 11:10:50;;;;;;;5.45;3.10;;;;;;;6.57;33.92;96178.25;4986799;28;20504;-69
2022/01/18 11:13:24;;;;;;;8.15;4.47;;;;;;;7.39;32.14;96143.28;4971361;28;20064;-69
2022/01/18 11:16:03;;;;;;;8.68;5.20;;;;;;;6.50;33.41;96174.22;4986405;28;20455;-70
2022/01/18 11:18:35;;;;;;;9.98;4.72;;;;;;;8.37;31.47;96151.94;4987351;28;20347;-67
2022/01/18 11:21:32;;;;;;;6.50;4.60;;;;;;;8.62;30.65;96156.22;5005582;28;20412;-68
2022/01/18 11:24:36;;;;;;;;;;;;;;;;;;;;;
2022/01/18 11:27:13;;;;;;;10.27;4.30;;;;;;;12.82;24.08;96136.41;5005762;28;20052;-68
2022/01/18 11:29:52;;;;;;;6.00;3.50;;;;;;;9.77;27.00;96135.38;5002832;28;20054;-67
2022/01/18 11:32:26;;;;;;;8.70;3.55;;;;;;;8.38;28.89;96151.06;5008692;28;20026;-68
2022/01/18 11:35:42;;;;;;;9.15;4.97;;;;;;;8.15;30.98;96146.72;5007812;28;20058;-70
2022/01/18 11:38:30;;;;;;;6.75;3.53;;;;;;;9.53;27.84;96184.44;4989158;28;20111;-68
2022/01/18 11:40:59;;;;;;;4.93;3.35;;;;;;;9.66;27.66;96128.13;5008141;28;20034;-68
2022/01/18 11:43:44;;;;;;;8.45;3.17;;;;;;;11.41;24.71;96149.56;5008187;28;20084;-69
2022/01/18 11:47:08;;;;;;;9.32;3.50;;;;;;;12.02;23.34;96139.72;5004794;28;20465;-70
2022/01/18 11:50:03;;;;;;;8.00;3.47;;;;;;;13.56;22.27;96121.13;4953151;28;20556;-68
2022/01/18 11:52:47;;;;;;;8.13;3.95;;;;;;;14.81;20.55;96106.78;4976087;28;20550;-69
2022/01/18 11:55:58;;;;;;;;;;;;;;;;;;;;;
2022/01/18 11:58:42;;;;;;;5.22;3.50;;;;;;;15.29;19.96;96126.31;4974967;28;20042;-69
2022/01/18 12:01:46;;;;;;;7.28;3.72;;;;;;;15.25;19.77;96110.09;4955986;28;20097;-68
2022/01/18 12:04:18;;;;;;;5.95;3.22;;;;;;;15.39;19.49;96141.19;4989178;28;20089;-66
2022/01/18 12:07:16;;;;;;;;;;;;;;;;;;;;;
2022/01/18 12:10:11;;;;;;;;;;;;;;;;;;;;;
2022/01/18 12:13:17;;;;;;;4.97;3.20;;;;;;;13.82;20.69;96132.56;4957033;28;20424;-68
2022/01/18 12:15:55;;;;;;;7.22;3.42;;;;;;;13.30;21.27;96110.47;4989142;28;20037;-67
2022/01/18 12:18:39;;;;;;;7.15;3.33;;;;;;;14.51;20.75;96114.66;4985486;28;20126;-67
2022/01/18 12:21:24;;;;;;;6.63;3.83;;;;;;;15.14;19.75;96117.72;5007197;28;20053;-68
2022/01/18 12:23:53;;;;;;;7.80;3.15;;;;;;;13.89;21.28;96114.94;5008481;28;20060;-67
2022/01/18 12:26:33;;;;;;;11.60;3.55;;;;;;;14.36;19.97;96113.00;5009286;28;20045;-66
2022/01/18 12:29:35;;;;;;;4.70;3.10;;;;;;;14.32;20.69;96109.75;4990162;28;20035;-69
2022/01/18 12:34:51;;;;;;;7.18;3.35;;;;;;;14.64;19.73;96109.56;4990897;28;20009;-68
2022/01/18 12:37:28;;;;;;;7.07;3.33;;;;;;;11.66;22.92;96115.63;4989531;28;20039;-69
2022/01/18 12:40:08;;;;;;;7.13;3.42;;;;;;;11.82;22.02;96074.34;4990612;28;20042;-67
2022/01/18 12:45:13;;;;;;;3.75;2.45;;;;;;;10.06;24.63;96087.75;4991660;28;20030;-69
2022/01/18 12:48:09;;;;;;;6.22;2.90;;;;;;;9.85;25.18;96123.00;4990068;28;20447;-66
2022/01/18 12:50:51;;;;;;;6.18;3.92;;;;;;;10.80;24.11;96105.09;4991296;28;20828;-65
2022/01/18 12:53:36;;;;;;;5.85;2.85;;;;;;;10.46;24.77;96145.34;4991692;28;20493;-67
2022/01/18 12:56:08;;;;;;;6.38;3.30;;;;;;;10.51;24.98;96126.22;4990771;28;20101;-68
2022/01/18 12:58:42;;;;;;;5.10;3.15;;;;;;;10.51;24.86;96126.22;4989307;28;20050;-67
2022/01/18 13:01:20;;;;;;;10.25;4.68;;;;;;;11.66;23.58;96117.34;4990420;28;20081;-68
2022/01/18 13:03:57;;;;;;;4.88;2.70;;;;;;;11.16;23.14;96103.44;4998848;28;20030;-66
2022/01/18 13:06:30;;;;;;;5.60;2.80;;;;;;;10.95;23.82;96121.63;5009749;28;20420;-65
2022/01/18 13:09:02;;;;;;;7.47;3.35;;;;;;;10.00;25.24;96112.97;5007950;28;20042;-67
2022/01/18 13:11:30;;;;;;;9.48;3.30;;;;;;;8.28;27.58;96109.44;5008944;28;20050;-69
2022/01/18 13:25:14;;;;;;;5.78;3.28;;;;;;;11.64;23.12;96134.69;5010167;28;20124;-66
2022/01/18 13:27:47;;;;;;;10.25;4.32;;;;;;;8.88;26.09;96136.41;5009615;28;20038;-68
2022/01/18 13:30:21;;;;;;;7.38;3.28;;;;;;;9.63;26.32;96138.53;5009662;28;20042;-67